Time;durP1;ratioP1;P1;durP2;ratioP2;P2;SDS_P1;SDS_P2;PMS_P1;PMS_P2;Temp;Humidity;BMP_temperature;BMP_pressure;BME280_temperature;BME280_humidity;BME280_pressure;Samples;Min_cycle;Max_cycle;Signal;HPM_P1;HPM_P2
2021/06/17 00:01:39;;;;;;;24.17;12.83;;;;;;;18.12;66.20;100504.11;125695;1093;22797;-59
2021/06/17 00:04:10;;;;;;;28.75;14.75;;;;;;;18.09;66.19;100501.55;125695;1093;22797;-60
2021/06/17 00:06:43;;;;;;;26.00;14.35;;;;;;;18.06;66.69;100509.03;125657;1093;22940;-59
2021/06/17 00:09:17;;;;;;;28.20;14.75;;;;;;;18.04;66.65;100505.97;125668;1092;25858;-59
2021/06/17 00:11:48;;;;;;;21.25;12.50;;;;;;;18.00;66.65;100501.88;125777;1093;26289;-57
2021/06/17 00:14:20;;;;;;;24.70;14.10;;;;;;;17.93;66.74;100505.26;125771;1093;22797;-59
2021/06/17 00:16:51;;;;;;;24.25;13.95;;;;;;;17.85;66.74;100509.94;125860;1092;27291;-59
2021/06/17 00:19:23;;;;;;;20.53;11.40;;;;;;;17.82;67.18;100502.50;125872;1091;22787;-59
2021/06/17 00:21:55;;;;;;;20.07;10.97;;;;;;;17.77;66.81;100504.83;125746;1093;22800;-56
2021/06/17 00:24:27;;;;;;;20.45;10.80;;;;;;;17.75;67.20;100498.20;125836;1093;22783;-59
2021/06/17 00:26:59;;;;;;;21.95;11.10;;;;;;;17.70;67.21;100502.58;125859;1093;22774;-58
2021/06/17 00:29:31;;;;;;;19.53;10.23;;;;;;;17.67;67.20;100502.88;125904;1093;22843;-60
2021/06/17 00:32:02;;;;;;;19.93;10.43;;;;;;;17.63;67.46;100513.64;125740;1093;22767;-61
2021/06/17 00:34:36;;;;;;;18.57;10.43;;;;;;;17.59;67.78;100504.69;126049;1093;22906;-59
2021/06/17 00:37:08;;;;;;;18.80;9.85;;;;;;;17.57;67.51;100516.50;126022;1093;26245;-59
2021/06/17 00:39:40;;;;;;;19.25;10.10;;;;;;;17.53;67.85;100507.55;125782;1093;22847;-59
2021/06/17 00:42:12;;;;;;;21.65;10.70;;;;;;;17.50;67.48;100505.00;125827;1093;22786;-59
2021/06/17 00:44:43;;;;;;;16.95;10.40;;;;;;;17.44;68.00;100502.16;125955;1093;22736;-59
2021/06/17 00:47:15;;;;;;;21.20;11.20;;;;;;;17.40;67.89;100498.10;125805;1092;22837;-59
2021/06/17 00:49:47;;;;;;;22.37;11.10;;;;;;;17.38;68.29;100492.20;125801;1093;26302;-58
2021/06/17 00:52:18;;;;;;;21.30;11.30;;;;;;;17.33;68.20;100505.05;125722;1093;22774;-59
2021/06/17 00:54:51;;;;;;;21.87;10.60;;;;;;;17.28;67.99;100505.83;125766;1093;22855;-60
2021/06/17 00:57:23;;;;;;;20.10;11.20;;;;;;;17.24;68.50;100504.56;125828;1093;23253;-59
2021/06/17 00:59:56;;;;;;;20.70;10.57;;;;;;;17.19;68.23;100508.19;125674;1093;25855;-61
2021/06/17 01:02:27;;;;;;;20.67;10.73;;;;;;;17.11;68.40;100501.55;125835;1093;22779;-59
2021/06/17 01:05:01;;;;;;;20.95;10.35;;;;;;;17.07;68.78;100507.44;125744;1093;22797;-58
2021/06/17 01:07:38;;;;;;;18.95;10.00;;;;;;;17.02;68.56;100499.78;125905;1093;22884;-60
2021/06/17 01:10:20;;;;;;;17.37;10.13;;;;;;;16.98;68.80;100504.92;125892;1093;22800;-60
2021/06/17 01:13:03;;;;;;;18.80;9.75;;;;;;;16.93;68.45;100502.87;125896;1093;25858;-59
2021/06/17 01:15:38;;;;;;;17.05;10.00;;;;;;;16.90;68.68;100510.30;125867;1093;27725;-61
2021/06/17 01:18:14;;;;;;;20.05;10.00;;;;;;;16.88;68.68;100504.41;125912;1092;22926;-60
2021/06/17 01:20:52;;;;;;;17.75;9.45;;;;;;;16.88;68.74;100506.48;125803;1093;22784;-59
2021/06/17 01:23:52;;;;;;;19.33;10.30;;;;;;;16.90;69.01;100504.66;125910;1093;24608;-59
2021/06/17 01:26:32;;;;;;;19.50;10.00;;;;;;;16.90;69.33;100503.92;125708;1093;25561;-56
2021/06/17 01:29:08;;;;;;;21.58;11.20;;;;;;;16.82;69.50;100509.30;125878;1092;22771;-59
2021/06/17 01:31:44;;;;;;;18.30;10.20;;;;;;;16.78;69.83;100503.16;125908;1092;22928;-61
2021/06/17 01:34:18;;;;;;;18.45;10.20;;;;;;;16.73;70.13;100500.36;126030;1093;22793;-58
2021/06/17 01:36:58;;;;;;;14.70;9.20;;;;;;;16.68;69.97;100504.72;125884;1093;22788;-57
2021/06/17 01:39:34;;;;;;;20.25;9.58;;;;;;;16.65;69.44;100504.98;126011;1093;22816;-59
2021/06/17 01:42:09;;;;;;;19.35;9.00;;;;;;;16.61;69.57;100502.44;125769;1093;22797;-58
2021/06/17 01:44:43;;;;;;;18.40;9.50;;;;;;;16.58;69.83;100505.50;126080;1093;26873;-59
2021/06/17 01:47:17;;;;;;;20.17;10.17;;;;;;;16.58;69.52;100499.86;125858;1093;23076;-58
2021/06/17 01:49:53;;;;;;;19.87;9.87;;;;;;;16.54;69.79;100505.77;125897;1092;22774;-59
2021/06/17 01:52:26;;;;;;;17.30;9.60;;;;;;;16.52;69.62;100502.70;126050;1093;23770;-61
2021/06/17 01:55:03;;;;;;;17.17;9.03;;;;;;;16.52;69.65;100508.33;125992;1093;22876;-58
2021/06/17 01:57:39;;;;;;;19.60;10.10;;;;;;;16.51;70.15;100500.40;125848;1092;22853;-58
2021/06/17 02:00:14;;;;;;;18.50;10.10;;;;;;;16.50;69.93;100508.08;125773;1093;22771;-58
2021/06/17 02:02:48;;;;;;;19.60;10.30;;;;;;;16.48;70.17;100501.38;125823;1093;22847;-57
2021/06/17 02:05:22;;;;;;;18.75;10.20;;;;;;;16.46;70.34;100504.72;125984;1093;22786;-58
2021/06/17 02:07:55;;;;;;;19.05;10.40;;;;;;;16.43;70.06;100507.81;125919;1093;22767;-57
2021/06/17 02:10:28;;;;;;;21.17;11.03;;;;;;;16.39;70.53;100502.41;126083;1093;22787;-59
2021/06/17 02:13:00;;;;;;;20.80;11.50;;;;;;;16.38;70.92;100502.93;125810;1093;22774;-58
2021/06/17 02:15:33;;;;;;;18.65;10.00;;;;;;;16.35;70.25;100504.72;129037;1092;22793;-58
2021/06/17 02:18:06;;;;;;;17.30;10.60;;;;;;;16.35;70.75;100510.35;125941;1093;22782;-59
2021/06/17 02:20:40;;;;;;;21.55;11.60;;;;;;;16.32;70.55;100505.76;125861;1093;25845;-59
2021/06/17 02:23:15;;;;;;;23.73;11.60;;;;;;;16.27;70.63;100505.73;125840;1093;24471;-58
2021/06/17 02:25:48;;;;;;;19.85;10.55;;;;;;;16.23;70.97;100503.19;125958;1092;25980;-59
2021/06/17 02:28:24;;;;;;;22.23;10.57;;;;;;;16.16;71.14;100501.64;125941;1093;22804;-58
2021/06/17 02:30:59;;;;;;;22.20;10.90;;;;;;;16.14;70.80;100506.25;125756;1093;22773;-59
2021/06/17 02:33:33;;;;;;;21.75;10.70;;;;;;;16.14;71.18;100498.56;125831;1093;22797;-61
2021/06/17 02:36:06;;;;;;;20.45;11.20;;;;;;;16.15;71.19;100502.16;125869;1093;22776;-59
2021/06/17 02:38:44;;;;;;;22.15;11.75;;;;;;;16.14;71.05;100506.25;125976;1093;22828;-59
2021/06/17 02:41:19;;;;;;;24.43;10.57;;;;;;;16.13;71.33;100499.86;125809;1093;22773;-58
2021/06/17 02:43:56;;;;;;;22.40;12.20;;;;;;;16.10;71.61;100500.88;125879;1093;22822;-59
2021/06/17 02:46:32;;;;;;;21.00;11.57;;;;;;;16.08;71.38;100508.29;125810;1093;22862;-59
2021/06/17 02:49:07;;;;;;;22.80;12.10;;;;;;;16.03;71.76;100500.63;125828;1093;22804;-59
2021/06/17 02:51:38;;;;;;;22.03;11.67;;;;;;;16.00;71.72;100499.59;125915;1093;22797;-60
2021/06/17 02:54:10;;;;;;;19.25;10.80;;;;;;;15.97;71.69;100499.85;125804;1092;22813;-60
2021/06/17 02:56:53;;;;;;;21.20;11.55;;;;;;;15.95;71.87;100505.22;125810;1092;22828;-58
2021/06/17 02:59:39;;;;;;;22.10;12.65;;;;;;;15.91;71.86;100497.00;125733;1093;24485;-60
2021/06/17 03:02:16;;;;;;;19.85;10.75;;;;;;;15.94;71.61;100498.04;125854;1093;27195;-58
2021/06/17 03:04:50;;;;;;;22.80;11.20;;;;;;;15.94;71.99;100496.00;125936;1093;22770;-58
2021/06/17 03:07:25;;;;;;;21.45;11.55;;;;;;;15.95;71.87;100499.59;125945;1093;25790;-59
2021/06/17 03:10:00;;;;;;;24.15;12.45;;;;;;;15.97;72.25;100505.48;125919;1093;22770;-58
2021/06/17 03:12:33;;;;;;;25.83;12.80;;;;;;;15.98;72.36;100501.38;126535;1092;22856;-59
2021/06/17 03:15:10;;;;;;;23.95;12.95;;;;;;;15.97;72.45;100508.30;125828;1093;22819;-61
2021/06/17 03:17:44;;;;;;;25.05;13.00;;;;;;;15.97;72.29;100509.05;125846;1093;22882;-59
2021/06/17 03:20:19;;;;;;;26.20;13.50;;;;;;;15.99;72.53;100517.00;126000;1093;22928;-58
2021/06/17 03:22:54;;;;;;;25.27;15.07;;;;;;;15.99;72.92;100511.37;126125;1093;24494;-58
2021/06/17 03:25:28;;;;;;;24.55;13.65;;;;;;;15.99;73.08;100505.73;125981;1093;22811;-58
2021/06/17 03:28:01;;;;;;;26.30;14.60;;;;;;;15.98;73.18;100507.78;125940;1093;22771;-58
2021/06/17 03:30:34;;;;;;;25.50;13.65;;;;;;;15.97;73.04;100509.05;125830;1093;22777;-59
2021/06/17 03:33:07;;;;;;;23.70;13.27;;;;;;;15.97;73.32;100516.74;125875;1093;22857;-56
2021/06/17 03:35:43;;;;;;;25.85;13.40;;;;;;;15.96;73.39;100512.38;125760;1093;22781;-58
2021/06/17 03:38:15;;;;;;;21.15;12.65;;;;;;;15.96;73.59;100515.19;125978;1093;22906;-58
2021/06/17 03:40:49;;;;;;;25.15;13.40;;;;;;;15.97;73.18;100506.23;125832;1092;22773;-58
2021/06/17 03:43:22;;;;;;;22.50;13.05;;;;;;;16.02;73.60;100508.30;125815;1093;22773;-58
2021/06/17 03:45:55;;;;;;;24.00;13.85;;;;;;;16.09;73.59;100507.02;125915;1093;23522;-58
2021/06/17 03:48:27;;;;;;;24.90;15.80;;;;;;;16.14;73.44;100507.02;125919;1092;22918;-59
2021/06/17 03:51:01;;;;;;;28.70;15.05;;;;;;;16.20;73.86;100504.97;125717;1093;22773;-62
2021/06/17 03:53:33;;;;;;;27.27;15.07;;;;;;;16.28;73.65;100504.47;125887;1092;22812;-60
2021/06/17 03:56:06;;;;;;;27.63;16.10;;;;;;;16.34;73.77;100503.20;125754;1093;26249;-59
2021/06/17 03:58:38;;;;;;;28.80;16.50;;;;;;;16.43;73.86;100510.63;125899;1093;27357;-59
2021/06/17 04:01:10;;;;;;;27.95;15.35;;;;;;;16.50;73.87;100499.63;125851;1093;22775;-59
2021/06/17 04:03:44;;;;;;;28.15;17.15;;;;;;;16.59;73.79;100505.01;125897;1093;24509;-60
2021/06/17 04:06:21;;;;;;;27.77;15.80;;;;;;;16.66;73.93;100507.28;125823;1093;26293;-59
2021/06/17 04:08:55;;;;;;;25.75;16.10;;;;;;;16.72;73.88;100504.45;125837;1092;22775;-60
2021/06/17 04:11:27;;;;;;;24.40;15.25;;;;;;;16.80;74.02;100506.23;126004;1093;22793;-59
2021/06/17 04:14:00;;;;;;;28.13;15.23;;;;;;;16.88;74.09;100506.48;125842;1093;24435;-58
2021/06/17 04:16:32;;;;;;;29.35;16.95;;;;;;;16.94;74.42;100502.38;125872;1093;22807;-59
2021/06/17 04:19:04;;;;;;;28.40;17.40;;;;;;;17.01;74.14;100501.05;126123;1092;22851;-59
2021/06/17 04:21:38;;;;;;;31.85;17.85;;;;;;;17.09;74.73;100499.22;125824;1092;22925;-59
2021/06/17 04:24:12;;;;;;;27.05;18.05;;;;;;;17.16;74.36;100507.16;125688;1093;22790;-59
2021/06/17 04:26:44;;;;;;;28.45;16.70;;;;;;;17.23;74.09;100500.99;125848;1093;27551;-59
2021/06/17 04:29:17;;;;;;;32.65;17.75;;;;;;;17.34;74.51;100503.00;125710;1093;22762;-61
2021/06/17 04:31:53;;;;;;;26.63;16.53;;;;;;;17.43;74.45;100505.52;125921;1093;22731;-60
2021/06/17 04:34:25;;;;;;;29.10;18.10;;;;;;;17.53;74.63;100499.08;125834;1093;22770;-58
2021/06/17 04:36:57;;;;;;;32.15;17.40;;;;;;;17.64;74.29;100495.42;125708;1093;22856;-59
2021/06/17 04:39:29;;;;;;;30.65;18.00;;;;;;;17.75;74.25;100490.47;125789;1093;25871;-59
2021/06/17 04:42:11;;;;;;;31.70;17.20;;;;;;;17.89;74.41;100497.08;125691;1092;22790;-60
2021/06/17 04:44:44;;;;;;;29.15;18.50;;;;;;;18.01;74.40;100492.88;125738;1093;27177;-60
2021/06/17 04:47:24;;;;;;;32.10;18.60;;;;;;;18.11;74.27;100496.13;125942;1093;22780;-60
2021/06/17 04:49:57;;;;;;;29.25;17.80;;;;;;;18.23;73.94;100506.83;125842;1093;23130;-60
2021/06/17 04:53:04;;;;;;;26.90;15.90;;;;;;;18.37;74.03;100502.11;125738;1092;24353;-59
2021/06/17 04:55:40;;;;;;;33.20;18.40;;;;;;;18.54;73.97;100503.51;125645;1093;28358;-61
2021/06/17 04:58:12;;;;;;;33.70;16.15;;;;;;;18.66;73.96;100503.41;126030;1093;25577;-61
2021/06/17 05:00:44;;;;;;;30.00;18.00;;;;;;;18.79;74.04;100498.64;126089;1092;22872;-61
2021/06/17 05:03:16;;;;;;;28.37;16.07;;;;;;;18.93;73.52;100503.11;126064;1093;22769;-60
2021/06/17 05:05:49;;;;;;;28.20;16.10;;;;;;;19.08;73.44;100505.52;126117;1093;22787;-61
2021/06/17 05:11:11;;;;;;;27.17;17.37;;;;;;;19.37;73.03;100501.86;125875;1093;27173;-60
2021/06/17 05:13:43;;;;;;;22.20;13.43;;;;;;;19.50;72.86;100510.45;125828;1092;24493;-59
2021/06/17 05:16:17;;;;;;;25.75;15.85;;;;;;;19.64;72.70;100512.05;125869;1092;24414;-59
2021/06/17 05:18:49;;;;;;;27.83;16.63;;;;;;;19.79;72.54;100508.77;125773;1093;22767;-59
2021/06/17 05:21:20;;;;;;;25.87;14.27;;;;;;;19.89;72.27;100502.17;125598;1093;22809;-63
2021/06/17 05:23:52;;;;;;;27.30;15.43;;;;;;;20.03;71.71;100514.32;125660;1093;22775;-60
2021/06/17 05:26:24;;;;;;;31.20;15.20;;;;;;;20.16;71.55;100506.66;126470;1093;22851;-59
2021/06/17 05:28:55;;;;;;;26.98;15.03;;;;;;;20.27;71.43;100511.41;125963;1093;22773;-64
2021/06/17 05:31:28;;;;;;;28.38;16.00;;;;;;;20.42;71.52;100505.98;125904;1093;22858;-60
2021/06/17 05:34:00;;;;;;;24.98;15.05;;;;;;;20.54;71.08;100509.41;125894;1093;26286;-60
2021/06/17 05:36:31;;;;;;;30.40;15.18;;;;;;;20.62;70.58;100510.30;126115;1093;22858;-60
2021/06/17 05:39:03;;;;;;;30.55;14.95;;;;;;;20.74;70.58;100506.72;125980;1093;26258;-61
2021/06/17 05:41:36;;;;;;;25.93;14.08;;;;;;;20.87;70.23;100503.14;126114;1092;22765;-61
2021/06/17 05:44:08;;;;;;;24.73;14.17;;;;;;;20.98;70.08;100503.68;125994;1093;23050;-58
2021/06/17 05:46:41;;;;;;;30.85;16.15;;;;;;;21.12;69.17;100507.33;125987;1093;22803;-59
2021/06/17 05:49:14;;;;;;;29.18;14.23;;;;;;;21.19;69.40;100495.30;126030;1093;22858;-61
2021/06/17 05:51:45;;;;;;;29.10;14.78;;;;;;;21.30;68.84;100488.63;125938;1093;22754;-60
2021/06/17 05:54:17;;;;;;;26.20;14.03;;;;;;;21.40;69.05;100489.70;125919;1093;23405;-59
2021/06/17 05:56:49;;;;;;;26.90;14.80;;;;;;;21.51;68.64;100498.77;125946;1092;22864;-59
2021/06/17 05:59:21;;;;;;;28.83;13.73;;;;;;;21.62;68.04;100500.61;126680;1093;22852;-60
2021/06/17 06:01:52;;;;;;;31.20;13.65;;;;;;;21.69;68.16;100500.69;126027;1093;22822;-60
2021/06/17 06:04:24;;;;;;;27.50;13.75;;;;;;;21.85;67.78;100504.48;125974;1093;25929;-62
2021/06/17 06:06:58;;;;;;;24.50;12.53;;;;;;;21.96;67.25;100504.23;125926;1092;22794;-60
2021/06/17 06:09:29;;;;;;;28.08;12.63;;;;;;;22.07;67.50;100506.06;125864;1092;22840;-60
2021/06/17 06:12:03;;;;;;;26.90;12.70;;;;;;;22.16;67.05;100500.65;125929;1093;22819;-60
2021/06/17 06:14:35;;;;;;;25.35;12.15;;;;;;;22.28;66.59;100509.69;126028;1093;22802;-60
2021/06/17 06:17:08;;;;;;;25.48;11.93;;;;;;;22.36;66.18;100499.91;125901;1093;22770;-60
2021/06/17 06:19:39;;;;;;;23.35;12.15;;;;;;;22.51;66.25;100510.67;126048;1093;22787;-59
2021/06/17 06:22:11;;;;;;;25.18;11.58;;;;;;;22.66;65.46;100512.91;126002;1093;22776;-60
2021/06/17 06:24:44;;;;;;;24.95;12.78;;;;;;;22.76;65.17;100506.13;126003;1093;26478;-65
2021/06/17 06:27:15;;;;;;;24.58;12.20;;;;;;;22.86;65.38;100503.56;125916;1093;22749;-62
2021/06/17 06:29:46;;;;;;;24.30;10.55;;;;;;;23.01;64.90;100515.06;125912;1093;22794;-59
2021/06/17 06:32:20;;;;;;;23.38;10.88;;;;;;;23.14;64.35;100520.64;126025;1093;25910;-61
2021/06/17 06:34:52;;;;;;;21.65;9.88;;;;;;;23.25;64.11;100518.25;126041;1093;25992;-60
2021/06/17 06:37:23;;;;;;;24.75;11.78;;;;;;;23.29;63.78;100524.35;125870;1093;23770;-61
2021/06/17 06:39:55;;;;;;;24.58;11.20;;;;;;;23.36;63.51;100528.57;125891;1093;22790;-60
2021/06/17 06:42:28;;;;;;;19.98;10.15;;;;;;;23.47;63.55;100527.49;125971;1093;22917;-60
2021/06/17 06:45:00;;;;;;;22.50;10.78;;;;;;;23.57;62.73;100529.25;126005;1093;22773;-60
2021/06/17 06:47:31;;;;;;;22.18;10.20;;;;;;;23.67;62.26;100538.06;125923;1093;22794;-60
2021/06/17 06:50:03;;;;;;;19.98;9.23;;;;;;;23.77;62.40;100531.27;125926;1093;22794;-60
2021/06/17 06:52:35;;;;;;;20.25;9.65;;;;;;;23.84;62.07;100524.80;125975;1093;28855;-60
2021/06/17 06:55:09;;;;;;;17.60;8.75;;;;;;;23.90;61.83;100527.47;126006;1093;22751;-59
2021/06/17 06:57:40;;;;;;;20.50;9.08;;;;;;;24.02;61.59;100531.53;125947;1093;27274;-61
2021/06/17 07:00:16;;;;;;;18.67;8.17;;;;;;;24.12;61.00;100540.32;125909;1093;22785;-59
2021/06/17 07:02:48;;;;;;;17.93;8.43;;;;;;;24.19;60.75;100546.03;125916;1093;22858;-60
2021/06/17 07:05:20;;;;;;;19.43;8.90;;;;;;;24.25;60.58;100538.05;126071;1093;22794;-60
2021/06/17 07:07:52;;;;;;;16.30;7.78;;;;;;;24.34;60.05;100545.30;126757;1093;24105;-64
2021/06/17 07:10:23;;;;;;;15.43;7.23;;;;;;;24.45;60.47;100542.86;126357;1092;22764;-61
2021/06/17 07:12:54;;;;;;;17.58;7.88;;;;;;;24.54;59.73;100545.14;126345;1093;25758;-61
2021/06/17 07:15:30;;;;;;;17.23;7.10;;;;;;;24.64;59.72;100553.92;126439;1093;22778;-61
2021/06/17 07:18:01;;;;;;;17.98;7.48;;;;;;;24.75;59.54;100553.55;126317;1093;24405;-60
2021/06/17 07:20:33;;;;;;;18.18;7.88;;;;;;;24.85;58.89;100552.41;126451;1092;22805;-66
2021/06/17 07:23:05;;;;;;;19.90;7.95;;;;;;;24.95;58.80;100557.56;126644;1093;22753;-62
2021/06/17 07:25:36;;;;;;;18.13;8.63;;;;;;;25.04;58.52;100560.59;126293;1093;22767;-63
2021/06/17 07:28:08;;;;;;;16.78;6.83;;;;;;;25.12;58.32;100549.91;126403;1093;26249;-62
2021/06/17 07:30:43;;;;;;;19.50;6.63;;;;;;;25.23;57.97;100554.46;126527;1093;22745;-61
2021/06/17 07:33:14;;;;;;;14.87;6.90;;;;;;;25.31;57.43;100555.20;126079;1093;25774;-61
2021/06/17 07:35:46;;;;;;;16.43;6.30;;;;;;;25.41;57.41;100553.33;126359;1093;22743;-60
2021/06/17 07:38:17;;;;;;;14.33;6.23;;;;;;;25.49;56.86;100562.64;126265;1093;22767;-61
2021/06/17 07:40:49;;;;;;;17.90;6.45;;;;;;;25.55;56.69;100551.76;126267;1093;22855;-62
2021/06/17 07:43:21;;;;;;;14.18;5.83;;;;;;;25.65;56.21;100559.16;126464;1093;25748;-64
2021/06/17 07:45:52;;;;;;;13.35;6.00;;;;;;;25.76;55.48;100562.93;126323;1093;22771;-61
2021/06/17 07:48:26;;;;;;;13.88;5.45;;;;;;;25.84;55.95;100560.80;126326;1091;22743;-60
2021/06/17 07:50:57;;;;;;;12.68;5.60;;;;;;;25.93;55.60;100560.94;126477;1093;22811;-62
2021/06/17 07:53:29;;;;;;;14.50;5.55;;;;;;;26.02;55.33;100559.56;126248;1092;22771;-61
2021/06/17 07:56:05;;;;;;;17.90;6.08;;;;;;;26.09;54.38;100562.41;126400;1093;23479;-61
2021/06/17 07:58:36;;;;;;;13.38;5.28;;;;;;;26.15;53.91;100556.48;126282;1092;22764;-62
2021/06/17 08:01:08;;;;;;;16.07;5.07;;;;;;;26.22;54.08;100559.28;126445;1093;22771;-61
2021/06/17 08:03:39;;;;;;;12.20;5.00;;;;;;;26.33;53.92;100558.84;126343;1092;22770;-60
2021/06/17 08:06:11;;;;;;;9.85;3.55;;;;;;;26.43;52.50;100551.14;126265;1092;22759;-62
2021/06/17 08:08:44;;;;;;;12.30;3.30;;;;;;;26.53;51.83;100550.52;126265;1093;26942;-60
2021/06/17 08:11:16;;;;;;;10.10;3.23;;;;;;;26.64;51.43;100553.66;126385;1093;23306;-61
2021/06/17 08:13:47;;;;;;;10.85;3.70;;;;;;;26.70;51.63;100553.42;126443;1092;26239;-61
2021/06/17 08:16:19;;;;;;;12.60;3.35;;;;;;;26.79;50.46;100552.81;126180;1092;22764;-63
2021/06/17 08:18:54;;;;;;;8.85;3.13;;;;;;;26.87;50.19;100550.64;126228;1092;22767;-61
2021/06/17 08:21:26;;;;;;;8.00;2.88;;;;;;;26.96;49.88;100558.59;126342;1092;22797;-61
2021/06/17 08:23:59;;;;;;;11.33;3.53;;;;;;;27.02;49.93;100554.11;126400;1092;22696;-62
2021/06/17 08:26:32;;;;;;;10.55;3.48;;;;;;;27.11;49.55;100546.97;126491;1093;22772;-62
2021/06/17 08:29:05;;;;;;;9.00;3.10;;;;;;;27.18;48.91;100552.64;126273;1092;22775;-66
2021/06/17 08:31:38;;;;;;;11.58;3.90;;;;;;;27.32;48.80;100552.30;126410;1093;22767;-65
2021/06/17 08:34:14;;;;;;;10.85;3.73;;;;;;;27.37;48.35;100552.09;126318;1092;23507;-61
2021/06/17 08:36:46;;;;;;;9.30;3.30;;;;;;;27.44;48.52;100547.63;126502;1092;22780;-61
2021/06/17 08:39:17;;;;;;;11.28;4.10;;;;;;;27.52;47.98;100551.91;126385;1091;27490;-61
2021/06/17 08:41:49;;;;;;;9.00;3.08;;;;;;;27.59;47.55;100553.17;126137;1093;27128;-61
2021/06/17 08:44:22;;;;;;;10.53;2.73;;;;;;;27.66;47.54;100555.20;126104;1093;26296;-63
2021/06/17 08:46:53;;;;;;;20.23;4.00;;;;;;;27.71;46.79;100554.17;126363;1093;24586;-62
2021/06/17 08:49:27;;;;;;;10.60;2.70;;;;;;;27.79;46.33;100549.86;126469;1093;22749;-61
2021/06/17 08:52:00;;;;;;;7.85;2.43;;;;;;;27.83;45.55;100546.58;127490;1093;22745;-63
2021/06/17 08:54:33;;;;;;;10.08;2.75;;;;;;;27.84;45.79;100548.09;126507;1093;22770;-62
2021/06/17 08:57:05;;;;;;;9.93;3.28;;;;;;;27.92;45.29;100557.35;126428;1091;22770;-62
2021/06/17 08:59:39;;;;;;;10.53;2.97;;;;;;;27.95;44.75;100556.91;126316;1092;27510;-62
2021/06/17 09:02:11;;;;;;;7.33;2.40;;;;;;;28.00;44.40;100560.91;126248;1092;22767;-62
2021/06/17 09:04:43;;;;;;;9.35;2.95;;;;;;;28.05;44.35;100562.00;127024;1093;26360;-62
2021/06/17 09:07:16;;;;;;;6.65;2.28;;;;;;;28.09;44.02;100557.35;126269;1093;22830;-63
2021/06/17 09:09:50;;;;;;;8.38;2.93;;;;;;;28.15;44.52;100559.95;126365;1093;22912;-61
2021/06/17 09:12:22;;;;;;;12.18;3.13;;;;;;;28.25;44.59;100569.37;126266;1091;22732;-62
2021/06/17 09:14:57;;;;;;;9.05;2.28;;;;;;;28.35;44.23;100570.20;126310;1092;22770;-61
2021/06/17 09:17:28;;;;;;;7.98;2.38;;;;;;;28.42;44.37;100575.83;126266;1092;22766;-62
2021/06/17 09:20:00;;;;;;;10.20;3.03;;;;;;;28.51;44.20;100572.22;126070;1092;24153;-62
2021/06/17 09:22:34;;;;;;;6.10;2.10;;;;;;;28.59;43.60;100563.54;126318;1091;22770;-61
2021/06/17 09:25:08;;;;;;;7.53;2.25;;;;;;;28.63;42.86;100550.27;126476;1092;22829;-62
2021/06/17 09:27:42;;;;;;;8.40;2.43;;;;;;;28.68;43.17;100546.33;126360;1091;22767;-62
2021/06/17 09:30:23;;;;;;;8.28;2.25;;;;;;;28.76;42.89;100549.09;126290;1092;23458;-62
2021/06/17 09:33:00;;;;;;;11.38;2.73;;;;;;;28.81;42.56;100539.41;126495;1093;22793;-62
2021/06/17 09:35:32;;;;;;;7.58;2.30;;;;;;;28.86;42.35;100549.12;126289;1092;27156;-62
2021/06/17 09:38:05;;;;;;;12.95;2.78;;;;;;;28.87;42.35;100547.74;126151;1092;22873;-62
2021/06/17 09:40:45;;;;;;;7.15;2.63;;;;;;;28.86;41.88;100551.98;126184;1093;25775;-61
2021/06/17 09:43:25;;;;;;;7.03;2.10;;;;;;;28.89;41.98;100545.02;126146;1093;22770;-60
2021/06/17 09:45:59;;;;;;;9.13;2.50;;;;;;;28.92;41.60;100544.60;126257;1093;22731;-61
2021/06/17 09:48:44;;;;;;;10.33;2.90;;;;;;;28.95;41.51;100543.38;126300;1093;25787;-63
2021/06/17 09:51:38;;;;;;;6.85;1.93;;;;;;;28.97;40.87;100546.41;126227;1093;28353;-61
2021/06/17 09:54:17;;;;;;;10.08;2.08;;;;;;;29.00;40.83;100538.71;126106;1093;22850;-62
2021/06/17 09:56:54;;;;;;;4.83;1.85;;;;;;;29.04;41.38;100541.89;126475;1093;22773;-62
2021/06/17 09:59:39;;;;;;;5.93;1.70;;;;;;;29.11;41.35;100549.64;126307;1093;22761;-62
2021/06/17 10:02:16;;;;;;;8.43;2.38;;;;;;;29.17;40.75;100533.64;126431;1092;22775;-63
2021/06/17 10:04:49;;;;;;;8.38;2.48;;;;;;;29.19;40.30;100530.16;126162;1093;28497;-62
2021/06/17 10:07:22;;;;;;;8.13;2.50;;;;;;;29.18;40.80;100526.52;126368;1093;24159;-63
2021/06/17 10:09:53;;;;;;;6.58;2.20;;;;;;;29.19;40.30;100525.17;126369;1092;22797;-61
2021/06/17 10:12:25;;;;;;;9.98;2.55;;;;;;;29.27;40.61;100516.39;126123;1093;22769;-62
2021/06/17 10:15:00;;;;;;;7.08;2.45;;;;;;;29.34;40.46;100512.62;126303;1092;27214;-62
2021/06/17 10:17:32;;;;;;;9.63;2.93;;;;;;;29.36;40.23;100522.13;126278;1093;22922;-60
2021/06/17 10:20:05;;;;;;;10.95;2.43;;;;;;;29.44;40.33;100513.38;126264;1093;25376;-62
2021/06/17 10:22:37;;;;;;;12.90;2.05;;;;;;;29.49;39.37;100513.06;126335;1093;22758;-62
2021/06/17 10:25:20;;;;;;;6.00;1.80;;;;;;;29.53;38.75;100516.23;126329;1093;26282;-63
2021/06/17 10:27:53;;;;;;;11.00;2.20;;;;;;;29.55;38.92;100516.39;126301;1092;26264;-61
2021/06/17 10:30:41;;;;;;;6.08;2.00;;;;;;;29.61;38.67;100512.46;126627;1093;22749;-63
2021/06/17 10:33:34;;;;;;;5.20;1.80;;;;;;;29.64;38.03;100517.75;126202;1093;22797;-61
2021/06/17 10:36:37;;;;;;;5.68;2.05;;;;;;;29.65;37.58;100519.27;126040;1093;22813;-63
2021/06/17 10:39:19;;;;;;;8.35;1.98;;;;;;;29.68;38.18;100523.03;126135;1093;22765;-62
2021/06/17 10:42:28;;;;;;;7.10;1.63;;;;;;;29.74;37.91;100512.77;126050;1093;27399;-62
2021/06/17 10:45:13;;;;;;;6.35;1.80;;;;;;;29.79;37.90;100525.34;126033;1092;27189;-62
2021/06/17 10:48:14;;;;;;;4.93;1.68;;;;;;;29.83;37.34;100519.88;126136;1093;27260;-62
2021/06/17 10:51:10;;;;;;;7.18;1.88;;;;;;;29.85;37.16;100520.78;126238;1092;22791;-63
2021/06/17 10:53:49;;;;;;;7.33;1.88;;;;;;;29.87;37.43;100518.05;126166;1093;22764;-61
2021/06/17 10:56:26;;;;;;;5.35;1.90;;;;;;;29.96;37.77;100505.02;126152;1093;22816;-63
2021/06/17 10:59:01;;;;;;;8.48;2.03;;;;;;;30.02;37.43;100502.57;126050;1093;22857;-63
2021/06/17 11:01:37;;;;;;;9.88;1.80;;;;;;;30.04;36.68;100500.60;126225;1093;22827;-62
2021/06/17 11:04:12;;;;;;;5.73;1.53;;;;;;;30.09;36.85;100496.63;126234;1092;22784;-63
2021/06/17 11:07:25;;;;;;;6.15;1.50;;;;;;;30.06;36.73;100497.87;126048;1092;22813;-62
2021/06/17 11:10:05;;;;;;;7.00;1.75;;;;;;;30.08;36.55;100494.37;125967;1093;27194;-62
2021/06/17 11:12:57;;;;;;;5.35;1.60;;;;;;;30.09;36.57;100496.63;126070;1093;22784;-62
2021/06/17 11:15:44;;;;;;;5.38;1.50;;;;;;;30.12;36.45;100495.42;125991;1093;22757;-62
2021/06/17 11:18:18;;;;;;;5.45;1.80;;;;;;;30.14;36.46;100486.92;126137;1093;22872;-62
2021/06/17 11:20:49;;;;;;;5.18;1.40;;;;;;;30.17;36.03;100487.80;126035;1092;22787;-62
2021/06/17 11:23:31;;;;;;;4.15;1.33;;;;;;;30.20;35.65;100489.47;125899;1093;26286;-62
2021/06/17 11:26:03;;;;;;;5.05;1.50;;;;;;;30.24;35.57;100487.64;125928;1093;22772;-63
2021/06/17 11:28:54;;;;;;;4.23;1.60;;;;;;;30.28;35.37;100487.17;126330;1093;22796;-62
2021/06/17 11:31:45;;;;;;;5.10;1.43;;;;;;;30.31;35.42;100488.86;125816;1093;22744;-62
2021/06/17 11:34:37;;;;;;;6.35;1.45;;;;;;;30.31;35.05;100489.59;126052;1093;22761;-63
2021/06/17 11:37:16;;;;;;;4.48;1.40;;;;;;;30.35;34.87;100489.16;125929;1093;22769;-62
2021/06/17 11:39:50;;;;;;;3.65;1.20;;;;;;;30.38;34.38;100490.05;126218;1093;22775;-62
2021/06/17 11:42:22;;;;;;;5.60;1.03;;;;;;;30.40;33.97;100484.44;125881;1093;22777;-61
2021/06/17 11:45:05;;;;;;;2.85;1.00;;;;;;;30.44;33.33;100496.98;126042;1092;22842;-61